Arimo, ID

4:23 AM MDT on September 04, 2015 (GMT -0600)
KIDLAVAH2 | | Change Station
CLOSE
Current Station
Personal Weather Station
Location: Lava Hot Springs, ID
Elevation: 5217 ft
Nearby Weather Stations
Active Advisory: Fire Weather Warning Active Notice: Local Storm Report

Elev 5217 ft 42.66 °N, 112.02 °W | Updated 59 seconds ago

Clear
Clear
50.7 °F
Feels Like 50.7 °F
N
0.0
Wind Variable Wind from North
Gusts 0.0 mph

Today
High -- | Low -- °F
--% Chance of Precip.
Yesterday
High -- | Low -- °F
Precip. -- in
6:56 AM 7:58 PM
Waning Gibbous, 61% visible
Pressure 29.76 in
Visibility 10.0 miles
Clouds Clear
Dew Point 40 °F
Humidity 67%
Rainfall 0.00 in
Snow Depth Not available.
UV 0 out of 12
Pollen 8.70 out of 12
Air Quality Not available.
Flu Activity Not available.
METAR KPIH 040953Z AUTO 21011KT 10SM CLR 12/04 A2988 RMK AO2 SLP076 T01220039
Pressure 29.76 in
Visibility 10.0 miles
Clouds Clear
Dew Point 40 °F
Humidity 67%
Rainfall 0.00 in
Snow Depth Not available.
UV 0 out of 12
Pollen 8.70 out of 12
Air Quality Not available.
Flu Activity Not available.
METAR KPIH 040953Z AUTO 21011KT 10SM CLR 12/04 A2988 RMK AO2 SLP076 T01220039

10-Day Weather Forecast

×

Almanac

Astronomy

Sep. 04, 2015 Rise Set
Actual Time
Civil Twilight
Nautical Twilight
Astronomical Twilight
Moon
Length of Visible Light
Length of Day
Tomorrow will be .
, % of the Moon is Illuminated

Today's Extremes

State Highs State Lows

Community

WunderPhotos

Upload Photos

1,852,146 photos uploaded!

WunderBlogs® & News

Nearby

Air Quality

  Air Quality AQ Index Pollutant
Not available.

Snow Depth

Station Depth Elevation

Earthquake Activity

City Distance Mag. Time & Date
Minimum magnitude displayed is 2.5.

Coastal Water Temperatures

Place Temperature

Stations

Nearby Weather Stations

Station Location Temp. Windchill Dew Point Humidity Wind Precip. Elev Updated Type
                   
Fire Weather Warning
Statement as of 3:46 AM MDT on September 04, 2015

... Red flag warning remains in effect from 1 PM this afternoon to
10 PM MDT this evening for gusty winds and low relative humidity
for fire weather zone 413 below 5000 feet...

* affected area... fire weather zone 413 below 5000 feet.

* Wind... south 20 to 25 mph gusting to 35 to 40 mph.

* Humidity... 14 to 18 percent.

* Impacts... any fires that develop will likely spread rapidly.
Outdoor burning is not recommended.

Precautionary/preparedness actions...

A red flag warning means that critical fire weather conditions
are either occurring now... or will shortly. Fires may experience
rapid rates of growth. Please advise the appropriate officials or
fire crews in the field of the red flag warning for portions of
southeast Idaho.